createdAt,value
2024-01-01T00:00:24.867Z,99956.00
2024-01-01T00:02:52.588Z,99954.56
2024-01-01T00:05:19.972Z,99963.38
2024-01-01T00:07:51.926Z,99961.50
2024-01-01T00:10:20.212Z,99951.59
2024-01-01T00:12:47.857Z,99956.63
2024-01-01T00:15:14.825Z,99954.72
2024-01-01T00:17:41.824Z,99957.59
2024-01-01T00:20:10.754Z,99952.09
2024-01-01T00:22:37.706Z,99961.06
2024-01-01T00:25:08.209Z,99969.38
2024-01-01T00:27:36.619Z,99957.44
2024-01-01T00:30:04.368Z,99965.75
2024-01-01T00:32:31.452Z,99953.06
2024-01-01T00:34:58.548Z,99953.50
2024-01-01T00:37:25.457Z,99943.44
2024-01-01T00:39:52.677Z,99945.16
2024-01-01T00:42:19.964Z,99945.50
2024-01-01T00:44:46.836Z,99945.63
2024-01-01T00:47:13.766Z,99936.22
2024-01-01T00:49:41.009Z,99943.09
2024-01-01T00:52:07.918Z,99931.63
2024-01-01T00:54:34.971Z,99928.94
2024-01-01T00:57:01.892Z,99931.13
2024-01-01T00:59:29.117Z,99925.63
2024-01-01T01:01:56.185Z,99931.41
2024-01-01T01:04:23.357Z,99924.66
2024-01-01T01:06:50.285Z,99914.72
2024-01-01T01:09:17.222Z,99924.66
2024-01-01T01:11:44.141Z,99913.63
2024-01-01T01:14:11.521Z,99924.16
2024-01-01T01:16:38.543Z,99915.94
2024-01-01T01:19:05.672Z,99909.34
2024-01-01T01:21:32.679Z,99900.34
2024-01-01T01:23:59.894Z,99900.50
2024-01-01T01:26:26.730Z,99904.59
2024-01-01T01:28:53.648Z,99898.28
2024-01-01T01:31:20.555Z,99891.84
2024-01-01T01:33:47.471Z,99896.72
2024-01-01T01:36:15.743Z,99891.50
2024-01-01T01:38:42.775Z,99888.25
2024-01-01T01:41:09.731Z,99892.94
2024-01-01T01:43:36.701Z,99887.78
2024-01-01T01:46:04.178Z,99889.38
2024-01-01T01:48:32.746Z,99881.59
2024-01-01T01:51:00.446Z,99883.97
2024-01-01T01:53:29.442Z,99874.06
2024-01-01T01:56:03.639Z,99873.41
2024-01-01T01:58:32.996Z,99874.19
2024-01-01T02:01:00.087Z,99862.81
2024-01-01T02:03:27.521Z,99866.94
2024-01-01T02:05:56.506Z,99870.72
2024-01-01T02:08:24.461Z,99876.72
2024-01-01T02:10:51.516Z,99869.28
2024-01-01T02:13:30.518Z,99876.84
2024-01-01T02:15:57.655Z,99878.09
2024-01-01T02:18:27.326Z,99877.78
2024-01-01T02:20:56.007Z,99875.75
2024-01-01T02:23:23.320Z,99873.22
2024-01-01T02:25:50.339Z,99872.91
2024-01-01T02:28:17.801Z,99885.16
2024-01-01T02:30:44.728Z,99868.66
2024-01-01T02:33:13.534Z,99878.41
2024-01-01T02:35:40.490Z,99871.34
2024-01-01T02:38:10.133Z,99866.16
2024-01-01T02:40:38.183Z,99867.28
2024-01-01T02:43:05.493Z,99869.94
2024-01-01T02:45:33.451Z,99872.63
2024-01-01T02:48:01.172Z,99872.00
2024-01-01T02:50:28.861Z,99872.00
2024-01-01T02:52:55.850Z,99868.88
2024-01-01T02:55:23.065Z,99874.72
2024-01-01T02:57:50.128Z,99877.06
2024-01-01T03:00:17.570Z,99884.28
2024-01-01T03:02:44.790Z,99873.13
2024-01-01T03:05:12.159Z,99877.22
2024-01-01T03:07:39.212Z,99885.56
2024-01-01T03:10:06.578Z,99879.25
2024-01-01T03:12:34.601Z,99884.28
2024-01-01T03:15:04.527Z,99877.69
2024-01-01T03:17:31.677Z,99878.00
2024-01-01T03:19:58.923Z,99884.47
2024-01-01T03:22:26.082Z,99886.19
2024-01-01T03:24:53.005Z,99879.66
2024-01-01T03:27:20.155Z,99882.50
2024-01-01T03:29:47.094Z,99885.50
2024-01-01T03:32:14.545Z,99887.06
2024-01-01T03:34:41.638Z,99893.97
2024-01-01T03:37:08.709Z,99900.91
2024-01-01T03:39:35.713Z,99910.19
2024-01-01T03:42:02.781Z,99921.88
2024-01-01T03:44:29.926Z,99937.66
2024-01-01T03:46:56.968Z,99951.16
2024-01-01T03:49:24.081Z,99959.63
2024-01-01T03:51:50.954Z,99958.53
2024-01-01T03:54:17.996Z,99969.81
2024-01-01T03:56:45.213Z,99971.09
2024-01-01T03:59:12.644Z,99967.31
2024-01-01T04:01:39.614Z,99979.38
2024-01-01T04:04:08.106Z,99980.03
2024-01-01T04:06:35.193Z,99970.13
2024-01-01T04:09:03.718Z,99979.72
2024-01-01T04:11:30.755Z,99982.81
2024-01-01T04:13:57.969Z,99974.03
2024-01-01T04:16:24.888Z,99990.97
2024-01-01T04:18:52.160Z,99995.16
2024-01-01T04:21:19.194Z,99975.72
2024-01-01T04:23:46.089Z,99985.41
2024-01-01T04:26:14.595Z,99971.94
2024-01-01T04:28:42.848Z,99983.25
2024-01-01T04:31:09.729Z,99976.34
2024-01-01T04:33:36.595Z,99972.09
2024-01-01T04:36:05.324Z,99975.72
2024-01-01T04:38:32.342Z,99968.81
2024-01-01T04:40:59.262Z,99980.44
2024-01-01T04:43:28.005Z,99967.72
2024-01-01T04:45:54.920Z,99966.47
2024-01-01T04:48:23.679Z,99969.91
2024-01-01T04:50:50.615Z,99980.38
2024-01-01T04:53:17.786Z,99974.28
2024-01-01T04:55:44.755Z,99967.72
2024-01-01T04:58:11.741Z,99971.81
2024-01-01T05:00:38.619Z,99971.81
2024-01-01T05:03:05.995Z,99967.72
2024-01-01T05:05:32.926Z,99965.41
2024-01-01T05:08:00.332Z,99966.97
2024-01-01T05:10:27.231Z,99965.09
2024-01-01T05:12:55.539Z,99966.78
2024-01-01T05:15:22.467Z,99968.03
2024-01-01T05:17:49.649Z,99983.56
2024-01-01T05:20:16.747Z,99975.72
2024-01-01T05:22:43.882Z,99986.06
2024-01-01T05:25:11.353Z,99995.75
2024-01-01T05:27:38.830Z,99990.13
2024-01-01T05:30:06.890Z,100001.25
2024-01-01T05:32:34.731Z,100000.59
2024-01-01T05:35:02.365Z,100004.66
2024-01-01T05:37:29.354Z,100006.38
2024-01-01T05:39:56.199Z,100015.00
2024-01-01T05:42:23.219Z,100014.94
2024-01-01T05:44:50.337Z,100022.47
2024-01-01T05:47:17.559Z,100028.72
2024-01-01T05:49:44.759Z,100026.63
2024-01-01T05:52:12.097Z,100025.06
2024-01-01T05:54:38.989Z,100026.16
2024-01-01T05:57:05.856Z,100032.56
2024-01-01T05:59:32.696Z,100030.81
2024-01-01T06:01:59.605Z,100029.25
2024-01-01T06:04:26.461Z,100029.72
2024-01-01T06:06:53.537Z,100036.63
2024-01-01T06:09:20.393Z,100027.84
2024-01-01T06:11:49.449Z,100038.03
2024-01-01T06:14:17.544Z,100043.06
2024-01-01T06:16:45.626Z,100055.75
2024-01-01T06:19:13.015Z,100061.09
2024-01-01T06:21:40.440Z,100056.53
2024-01-01T06:24:07.408Z,100061.28
2024-01-01T06:26:34.369Z,100068.22
2024-01-01T06:29:01.249Z,100070.09
2024-01-01T06:31:28.276Z,100073.25
2024-01-01T06:33:55.173Z,100076.69
2024-01-01T06:36:22.099Z,100079.03
2024-01-01T06:38:48.965Z,100079.84
2024-01-01T06:41:16.102Z,100083.59
2024-01-01T06:43:43.007Z,100086.75
2024-01-01T06:46:11.103Z,100089.91
2024-01-01T06:48:38.484Z,100094.44
2024-01-01T06:51:14.550Z,100098.22
2024-01-01T06:53:41.466Z,100102.44
2024-01-01T06:56:10.577Z,100099.94
2024-01-01T06:58:39.423Z,100104.50
2024-01-01T07:01:06.933Z,100103.72
2024-01-01T07:03:33.828Z,100117.66
2024-01-01T07:06:01.104Z,100114.84
2024-01-01T07:08:28.087Z,100115.06
2024-01-01T07:10:55.380Z,100123.84
2024-01-01T07:13:22.461Z,100124.63
2024-01-01T07:15:49.394Z,100140.63
2024-01-01T07:18:18.412Z,100125.41
2024-01-01T07:20:45.856Z,100138.75
2024-01-01T07:23:12.739Z,100134.50
2024-01-01T07:25:39.913Z,100133.22
2024-01-01T07:28:07.151Z,100136.69
2024-01-01T07:30:34.327Z,100138.53
2024-01-01T07:33:01.219Z,100145.94
2024-01-01T07:35:28.605Z,100156.13
2024-01-01T07:37:55.662Z,100141.41
2024-01-01T07:40:22.628Z,100145.94
2024-01-01T07:42:49.487Z,100152.38
2024-01-01T07:45:16.850Z,100140.41
2024-01-01T07:47:43.903Z,100151.09
2024-01-01T07:50:11.012Z,100159.09
2024-01-01T07:52:38.227Z,100163.34
2024-01-01T07:55:05.571Z,100160.69
2024-01-01T07:57:32.432Z,100160.06
2024-01-01T07:59:59.771Z,100164.94
2024-01-01T08:02:27.292Z,100166.50
2024-01-01T08:04:55.439Z,100166.38
2024-01-01T08:07:23.439Z,100166.88
2024-01-01T08:09:50.432Z,100169.03
2024-01-01T08:12:17.355Z,100177.53
2024-01-01T08:14:44.240Z,100173.47
2024-01-01T08:17:11.195Z,100190.16
2024-01-01T08:19:38.367Z,100183.22
2024-01-01T08:22:05.318Z,100189.84
2024-01-01T08:24:32.457Z,100192.19
2024-01-01T08:26:59.485Z,100186.38
2024-01-01T08:29:26.547Z,100193.59
2024-01-01T08:31:53.546Z,100201.09
2024-01-01T08:34:21.196Z,100196.38
2024-01-01T08:36:48.055Z,100207.53
2024-01-01T08:39:15.019Z,100193.72
2024-01-01T08:41:45.436Z,100198.56
2024-01-01T08:44:12.498Z,100218.81
2024-01-01T08:46:39.435Z,100216.13
2024-01-01T08:49:07.002Z,100224.63
2024-01-01T08:51:34.435Z,100227.28
2024-01-01T08:54:02.654Z,100230.25
2024-01-01T08:56:29.528Z,100230.56
2024-01-01T08:58:56.821Z,100238.56
2024-01-01T09:01:23.761Z,100241.81
2024-01-01T09:03:51.254Z,100241.03
2024-01-01T09:06:19.017Z,100251.69
2024-01-01T09:08:46.116Z,100247.16
2024-01-01T09:11:13.008Z,100253.28
2024-01-01T09:13:41.066Z,100253.56
2024-01-01T09:16:07.965Z,100252.78
2024-01-01T09:18:35.096Z,100253.78
2024-01-01T09:21:02.090Z,100260.06
2024-01-01T09:23:29.107Z,100253.53
2024-01-01T09:25:56.080Z,100263.59
2024-01-01T09:28:23.260Z,100261.22
2024-01-01T09:30:50.286Z,100262.81
2024-01-01T09:33:17.301Z,100259.25
2024-01-01T09:35:44.188Z,100260.03
2024-01-01T09:38:14.163Z,100264.75
2024-01-01T09:40:43.110Z,100272.16
2024-01-01T09:43:16.535Z,100282.84
2024-01-01T09:45:44.053Z,100283.94
2024-01-01T09:48:11.415Z,100282.84
2024-01-01T09:50:38.439Z,100295.25
2024-01-01T09:53:05.534Z,100296.06
2024-01-01T09:55:32.582Z,100291.81
2024-01-01T09:57:59.666Z,100295.94
2024-01-01T10:00:26.869Z,100299.88
2024-01-01T10:03:07.683Z,100310.25
2024-01-01T10:05:34.656Z,100307.47
2024-01-01T10:08:19.991Z,100311.66
2024-01-01T10:10:46.929Z,100314.69
2024-01-01T10:13:15.333Z,100313.91
2024-01-01T10:15:43.401Z,100306.06
2024-01-01T10:18:11.901Z,100314.97
2024-01-01T10:20:40.519Z,100318.38
2024-01-01T10:23:23.436Z,100326.84
2024-01-01T10:26:02.018Z,100326.47
2024-01-01T10:28:31.551Z,100328.81
2024-01-01T10:30:59.186Z,100328.81
2024-01-01T10:33:28.570Z,100337.44
2024-01-01T10:38:03.339Z,100343.06
2024-01-01T10:40:30.267Z,100347.81
2024-01-01T10:42:58.308Z,100342.34
2024-01-01T10:45:25.598Z,100345.06
2024-01-01T10:47:54.037Z,100353.91
2024-01-01T10:50:27.055Z,100352.28
2024-01-01T10:53:18.161Z,100355.47
2024-01-01T10:55:57.935Z,100358.41
2024-01-01T10:58:31.427Z,100359.41
2024-01-01T11:01:06.775Z,100366.31
2024-01-01T11:03:35.862Z,100372.44
2024-01-01T11:06:23.037Z,100369.19
2024-01-01T11:08:50.055Z,100366.53
2024-01-01T11:11:27.030Z,100373.59
2024-01-01T11:13:55.091Z,100374.09
2024-01-01T11:16:22.604Z,100374.22
2024-01-01T11:18:50.752Z,100380.34
2024-01-01T11:21:32.483Z,100388.78
2024-01-01T11:24:20.499Z,100388.78
2024-01-01T11:26:49.651Z,100389.38
2024-01-01T11:29:19.826Z,100386.72
2024-01-01T11:31:46.748Z,100409.13
2024-01-01T11:34:24.993Z,100410.66
2024-01-01T11:36:55.144Z,100400.56
2024-01-01T11:39:28.472Z,100404.16
2024-01-01T11:41:58.073Z,100409.41
2024-01-01T11:44:26.930Z,100415.44
2024-01-01T11:46:56.633Z,100409.34
2024-01-01T11:49:23.794Z,100413.56
2024-01-01T11:51:53.003Z,100425.63
2024-01-01T11:54:20.324Z,100428.00
2024-01-01T11:56:47.931Z,100426.78
2024-01-01T11:59:16.900Z,100422.06
2024-01-01T12:01:45.918Z,100422.41
2024-01-01T12:04:13.552Z,100429.91
2024-01-01T12:06:40.522Z,100419.97
2024-01-01T12:09:12.626Z,100420.94
2024-01-01T12:11:41.145Z,100425.19
2024-01-01T12:14:08.930Z,100424.88
2024-01-01T12:16:37.172Z,100426.47
2024-01-01T12:19:14.158Z,100419.06
2024-01-01T12:21:45.363Z,100415.59
2024-01-01T12:24:20.566Z,100417.38
2024-01-01T12:26:49.704Z,100415.50
2024-01-01T12:29:21.326Z,100404.94
2024-01-01T12:31:50.207Z,100424.72
2024-01-01T12:34:19.735Z,100419.84
2024-01-01T12:36:48.536Z,100413.03
2024-01-01T12:39:20.577Z,100407.34
2024-01-01T12:41:47.510Z,100419.22
2024-01-01T12:44:14.567Z,100419.47
2024-01-01T12:46:41.959Z,100423.81
2024-01-01T12:49:09.168Z,100412.78
2024-01-01T12:51:36.617Z,100407.47
2024-01-01T12:54:05.254Z,100413.69
2024-01-01T12:56:32.627Z,100419.22
2024-01-01T12:58:59.653Z,100416.84
2024-01-01T13:01:26.503Z,100423.56
2024-01-01T13:03:53.684Z,100429.75
2024-01-01T13:06:21.649Z,100430.94
2024-01-01T13:08:50.393Z,100432.91
2024-01-01T13:11:18.258Z,100435.03
2024-01-01T13:13:45.780Z,100447.41
2024-01-01T13:16:12.789Z,100449.47
2024-01-01T13:18:40.108Z,100457.94
2024-01-01T13:21:07.183Z,100454.00
2024-01-01T13:23:34.248Z,100449.28
2024-01-01T13:26:05.020Z,100451.06
2024-01-01T13:28:32.565Z,100447.91
2024-01-01T13:31:01.897Z,100463.22
2024-01-01T13:33:29.509Z,100457.31
2024-01-01T13:35:56.694Z,100465.81
2024-01-01T13:38:23.925Z,100452.69
2024-01-01T13:40:50.836Z,100471.44
2024-01-01T13:43:20.968Z,100464.84
2024-01-01T13:45:48.158Z,100466.25
2024-01-01T13:48:15.407Z,100468.69
2024-01-01T13:50:44.155Z,100471.56
2024-01-01T13:53:11.506Z,100467.59
2024-01-01T13:55:38.498Z,100471.38
2024-01-01T13:58:07.831Z,100479.75
2024-01-01T14:00:38.520Z,100480.84
2024-01-01T14:03:06.940Z,100486.31
2024-01-01T14:05:34.249Z,100491.22
2024-01-01T14:08:01.418Z,100495.59
2024-01-01T14:10:28.380Z,100490.91
2024-01-01T14:12:55.868Z,100491.72
2024-01-01T14:15:25.161Z,100498.75
2024-01-01T14:17:53.359Z,100506.94
2024-01-01T14:20:24.002Z,100507.13
2024-01-01T14:22:51.114Z,100509.19
2024-01-01T14:25:20.021Z,100507.50
2024-01-01T14:27:47.228Z,100519.97
2024-01-01T14:30:16.958Z,100520.75
2024-01-01T14:32:44.316Z,100517.09
2024-01-01T14:35:12.771Z,100524.53
2024-01-01T14:37:40.743Z,100527.81
2024-01-01T14:40:09.539Z,100533.13
2024-01-01T14:42:36.527Z,100532.13
2024-01-01T14:45:04.022Z,100536.19
2024-01-01T14:47:30.989Z,100535.59
2024-01-01T14:49:58.155Z,100536.19
2024-01-01T14:52:25.201Z,100540.84
2024-01-01T14:54:52.055Z,100543.59
2024-01-01T14:57:19.024Z,100540.75
2024-01-01T14:59:45.972Z,100550.72
2024-01-01T15:02:13.772Z,100548.16
2024-01-01T15:04:45.341Z,100560.13
2024-01-01T15:07:12.354Z,100554.69
2024-01-01T15:09:39.697Z,100554.97
2024-01-01T15:12:07.966Z,100562.88
2024-01-01T15:14:34.949Z,100575.66
2024-01-01T15:17:02.528Z,100562.69
2024-01-01T15:19:29.450Z,100571.25
2024-01-01T15:21:56.497Z,100571.78
2024-01-01T15:24:23.410Z,100570.69
2024-01-01T15:26:51.010Z,100573.06
2024-01-01T15:29:17.878Z,100579.19
2024-01-01T15:31:44.787Z,100587.91
2024-01-01T15:34:12.056Z,100584.75
2024-01-01T15:36:45.224Z,100582.84
2024-01-01T15:39:15.588Z,100589.16
2024-01-01T15:41:42.515Z,100594.50
2024-01-01T15:44:09.488Z,100596.38
2024-01-01T15:46:36.532Z,100594.59
2024-01-01T15:49:03.526Z,100603.50
2024-01-01T15:51:38.700Z,100607.75
2024-01-01T15:54:06.929Z,100596.69
2024-01-01T15:56:34.062Z,100602.31
2024-01-01T15:59:01.142Z,100605.25
2024-01-01T16:01:28.148Z,100602.78
2024-01-01T16:03:56.132Z,100615.22
2024-01-01T16:06:23.705Z,100610.78
2024-01-01T16:08:51.001Z,100617.41
2024-01-01T16:11:24.358Z,100613.84
2024-01-01T16:13:52.735Z,100613.72
2024-01-01T16:16:19.941Z,100619.84
2024-01-01T16:18:47.550Z,100614.44
2024-01-01T16:21:14.706Z,100624.59
2024-01-01T16:23:41.679Z,100622.03
2024-01-01T16:26:08.625Z,100627.16
2024-01-01T16:28:35.503Z,100630.69
2024-01-01T16:31:02.743Z,100639.78
2024-01-01T16:33:30.596Z,100638.69
2024-01-01T16:36:01.202Z,100649.84
2024-01-01T16:38:28.240Z,100644.75
2024-01-01T16:40:55.270Z,100655.91
2024-01-01T16:43:22.194Z,100658.28
2024-01-01T16:45:49.337Z,100654.13
2024-01-01T16:48:16.577Z,100654.50
2024-01-01T16:50:48.926Z,100644.31
2024-01-01T16:53:16.317Z,100653.69
2024-01-01T16:55:48.689Z,100647.84
2024-01-01T16:58:16.655Z,100656.44
2024-01-01T17:00:43.630Z,100653.75
2024-01-01T17:03:12.212Z,100666.00
2024-01-01T17:05:39.353Z,100661.56
2024-01-01T17:08:06.845Z,100667.69
2024-01-01T17:10:33.824Z,100670.91
2024-01-01T17:13:01.289Z,100677.34
2024-01-01T17:15:28.162Z,100678.72
2024-01-01T17:17:55.267Z,100678.66
2024-01-01T17:20:22.403Z,100699.69
2024-01-01T17:22:54.429Z,100694.34
2024-01-01T17:25:27.222Z,100694.66
2024-01-01T17:27:54.386Z,100705.88
2024-01-01T17:30:22.474Z,100697.38
2024-01-01T17:32:49.939Z,100704.06
2024-01-01T17:35:17.079Z,100712.59
2024-01-01T17:37:44.106Z,100704.47
2024-01-01T17:40:11.322Z,100709.75
2024-01-01T17:42:38.377Z,100704.47
2024-01-01T17:45:05.814Z,100709.81
2024-01-01T17:47:32.983Z,100693.31
2024-01-01T17:49:59.944Z,100705.25
2024-01-01T17:52:27.450Z,100710.88
2024-01-01T17:54:54.341Z,100706.94
2024-01-01T17:57:21.341Z,100712.59
2024-01-01T17:59:48.200Z,100716.66
2024-01-01T18:02:15.386Z,100718.28
2024-01-01T18:04:44.261Z,100722.81
2024-01-01T18:07:12.287Z,100724.19
2024-01-01T18:09:39.140Z,100726.13
2024-01-01T18:12:06.354Z,100737.28
2024-01-01T18:14:36.432Z,100738.38
2024-01-01T18:17:04.540Z,100739.72
2024-01-01T18:19:31.455Z,100737.81
2024-01-01T18:21:58.393Z,100741.81
2024-01-01T18:24:25.236Z,100740.53
2024-01-01T18:26:52.563Z,100748.81
2024-01-01T18:29:19.501Z,100750.91
2024-01-01T18:31:47.938Z,100746.66
2024-01-01T18:34:15.004Z,100749.34
2024-01-01T18:36:42.180Z,100743.25
2024-01-01T18:39:10.860Z,100753.63
2024-01-01T18:41:38.776Z,100757.34
2024-01-01T18:44:05.862Z,100761.63
2024-01-01T18:46:32.898Z,100754.13
2024-01-01T18:49:00.028Z,100756.81
2024-01-01T18:51:27.183Z,100758.09
2024-01-01T18:53:54.078Z,100764.50
2024-01-01T18:56:21.287Z,100764.00
2024-01-01T18:58:50.752Z,100763.94
2024-01-01T19:01:19.040Z,100761.56
2024-01-01T19:03:47.529Z,100762.63
2024-01-01T19:06:18.362Z,100764.50
2024-01-01T19:08:46.140Z,100766.09
2024-01-01T19:11:13.656Z,100764.16
2024-01-01T19:13:41.493Z,100763.03
2024-01-01T19:16:15.532Z,100763.03
2024-01-01T19:18:47.093Z,100761.41
2024-01-01T19:21:14.765Z,100759.34
2024-01-01T19:23:47.447Z,100755.66
2024-01-01T19:26:15.425Z,100755.94
2024-01-01T19:28:42.791Z,100754.94
2024-01-01T19:31:09.689Z,100757.09
2024-01-01T19:33:36.701Z,100773.06
2024-01-01T19:36:04.016Z,100761.06
2024-01-01T19:38:31.281Z,100769.34
2024-01-01T19:40:58.308Z,100755.50
2024-01-01T19:43:25.725Z,100763.75
2024-01-01T19:45:54.931Z,100756.06
2024-01-01T19:48:22.168Z,100752.84
2024-01-01T19:50:49.354Z,100752.75
2024-01-01T19:53:26.407Z,100757.31
2024-01-01T19:55:55.292Z,100755.13
2024-01-01T19:58:24.623Z,100756.47
2024-01-01T20:00:51.755Z,100756.31
2024-01-01T20:03:18.820Z,100748.84
2024-01-01T20:05:45.944Z,100744.09
2024-01-01T20:08:13.276Z,100735.66
2024-01-01T20:10:40.479Z,100740.25
2024-01-01T20:13:08.119Z,100742.97
2024-01-01T20:15:37.262Z,100746.47
2024-01-01T20:18:05.820Z,100741.22
2024-01-01T20:20:33.333Z,100744.44
2024-01-01T20:23:00.660Z,100744.44
2024-01-01T20:25:27.642Z,100750.34
2024-01-01T20:27:54.539Z,100745.50
2024-01-01T20:30:21.609Z,100750.84
2024-01-01T20:32:48.666Z,100748.19
2024-01-01T20:35:15.820Z,100746.59
2024-01-01T20:37:42.773Z,100754.56
2024-01-01T20:40:09.921Z,100753.78
2024-01-01T20:42:36.853Z,100743.41
2024-01-01T20:45:04.374Z,100741.56
2024-01-01T20:47:31.775Z,100744.94
2024-01-01T20:49:58.811Z,100739.91
2024-01-01T20:52:28.313Z,100742.16
2024-01-01T20:54:57.402Z,100737.13
2024-01-01T20:57:24.946Z,100738.72
2024-01-01T20:59:52.035Z,100736.84
2024-01-01T21:02:19.348Z,100741.88
2024-01-01T21:04:46.377Z,100742.16
2024-01-01T21:07:13.389Z,100743.25
2024-01-01T21:09:41.869Z,100736.31
2024-01-01T21:12:09.173Z,100735.75
2024-01-01T21:14:36.785Z,100739.72
2024-01-01T21:17:04.086Z,100747.22
2024-01-01T21:19:31.120Z,100756.28
2024-01-01T21:21:58.196Z,100755.75
2024-01-01T21:24:25.091Z,100757.34
2024-01-01T21:26:52.151Z,100752.53
2024-01-01T21:29:19.125Z,100750.69
2024-01-01T21:31:46.232Z,100751.22
2024-01-01T21:34:13.119Z,100746.41
2024-01-01T21:36:41.314Z,100744.53
2024-01-01T21:39:08.304Z,100745.63
2024-01-01T21:41:35.793Z,100749.63
2024-01-01T21:44:04.590Z,100750.66
2024-01-01T21:46:31.557Z,100747.78
2024-01-01T21:48:58.878Z,100744.28
2024-01-01T21:51:25.793Z,100741.38
2024-01-01T21:53:52.696Z,100744.25
2024-01-01T21:56:22.001Z,100746.41
2024-01-01T21:58:50.682Z,100731.28
2024-01-01T22:01:17.630Z,100745.13
2024-01-01T22:03:44.578Z,100749.06
2024-01-01T22:06:11.595Z,100741.63
2024-01-01T22:08:39.272Z,100740.34
2024-01-01T22:11:06.375Z,100749.19
2024-01-01T22:13:33.470Z,100740.94
2024-01-01T22:16:01.462Z,100740.16
2024-01-01T22:18:28.426Z,100742.31
2024-01-01T22:20:55.335Z,100735.91
2024-01-01T22:23:22.246Z,100741.81
2024-01-01T22:25:49.272Z,100738.84
2024-01-01T22:28:16.357Z,100730.63
2024-01-01T22:30:43.820Z,100723.16
2024-01-01T22:33:11.346Z,100721.31
2024-01-01T22:35:38.935Z,100713.84
2024-01-01T22:38:05.954Z,100698.69
2024-01-01T22:40:33.627Z,100700.50
2024-01-01T22:43:01.825Z,100696.31
2024-01-01T22:45:28.717Z,100687.81
2024-01-01T22:47:55.773Z,100684.13
2024-01-01T22:50:22.854Z,100683.31
2024-01-01T22:52:49.867Z,100683.91
2024-01-01T22:55:16.716Z,100672.47
2024-01-01T22:57:43.644Z,100667.66
2024-01-01T23:00:21.787Z,100669.81
2024-01-01T23:02:50.280Z,100669.81
2024-01-01T23:05:20.954Z,100664.09
2024-01-01T23:07:49.501Z,100659.78
2024-01-01T23:10:25.979Z,100656.09
2024-01-01T23:12:54.483Z,100649.16
2024-01-01T23:15:22.617Z,100637.22
2024-01-01T23:17:51.156Z,100638.00
2024-01-01T23:20:19.079Z,100641.16
2024-01-01T23:22:46.339Z,100631.88
2024-01-01T23:25:13.197Z,100632.94
2024-01-01T23:27:41.384Z,100627.06
2024-01-01T23:30:08.861Z,100609.50
2024-01-01T23:32:36.090Z,100611.38
2024-01-01T23:35:04.566Z,100603.16
2024-01-01T23:37:32.609Z,100608.72
2024-01-01T23:39:59.510Z,100601.03
2024-01-01T23:42:26.703Z,100601.25
2024-01-01T23:44:53.572Z,100601.53
2024-01-01T23:47:20.547Z,100591.44
2024-01-01T23:49:47.433Z,100587.94
2024-01-01T23:52:14.339Z,100582.34
2024-01-01T23:54:41.155Z,100566.94
2024-01-01T23:57:08.263Z,100564.00
2024-01-01T23:59:35.276Z,100555.97
